createdAt,value
2019-03-20T00:01:03.485Z,22.60
2019-03-20T00:03:32.098Z,23.13
2019-03-20T00:06:00.685Z,21.67
2019-03-20T00:08:29.543Z,22.30
2019-03-20T00:10:58.113Z,22.60
2019-03-20T00:13:26.691Z,21.07
2019-03-20T00:15:55.264Z,21.80
2019-03-20T00:18:23.819Z,19.17
2019-03-20T00:20:52.661Z,19.23
2019-03-20T00:23:21.281Z,19.30
2019-03-20T00:25:49.932Z,19.77
2019-03-20T00:28:18.561Z,20.20
2019-03-20T00:30:47.253Z,18.90
2019-03-20T00:33:15.923Z,20.30
2019-03-20T00:35:44.515Z,18.73
2019-03-20T00:38:13.099Z,18.77
2019-03-20T00:40:41.881Z,18.20
2019-03-20T00:43:10.532Z,17.17
2019-03-20T00:45:39.187Z,17.03
2019-03-20T00:48:07.965Z,16.87
2019-03-20T00:50:36.687Z,16.47
2019-03-20T00:53:05.411Z,16.73
2019-03-20T00:55:34.019Z,15.43
2019-03-20T00:58:02.556Z,17.67
2019-03-20T01:00:31.295Z,15.83
2019-03-20T01:02:59.959Z,16.00
2019-03-20T01:05:28.599Z,14.50
2019-03-20T01:07:57.274Z,15.03
2019-03-20T01:10:25.971Z,14.93
2019-03-20T01:12:54.597Z,15.50
2019-03-20T01:15:23.311Z,15.10
2019-03-20T01:17:51.949Z,13.60
2019-03-20T01:20:24.501Z,16.13
2019-03-20T01:22:53.314Z,15.37
2019-03-20T01:25:40.117Z,13.33
2019-03-20T01:28:09.589Z,15.47
2019-03-20T01:30:41.162Z,15.63
2019-03-20T01:33:11.315Z,16.07
2019-03-20T01:35:41.299Z,16.27
2019-03-20T01:38:10.699Z,16.77
2019-03-20T01:40:40.463Z,17.00
2019-03-20T01:43:09.496Z,17.43
2019-03-20T01:45:38.229Z,17.47
2019-03-20T01:48:06.945Z,16.47
2019-03-20T01:50:35.598Z,16.23
2019-03-20T01:53:05.938Z,16.53
2019-03-20T01:56:29.495Z,16.43
2019-03-20T01:58:58.111Z,15.97
2019-03-20T02:01:26.697Z,16.87
2019-03-20T02:03:55.361Z,17.37
2019-03-20T02:06:23.936Z,16.63
2019-03-20T02:08:52.509Z,17.80
2019-03-20T02:11:21.144Z,17.60
2019-03-20T02:13:49.723Z,17.13
2019-03-20T02:16:18.253Z,17.37
2019-03-20T02:18:46.891Z,18.40
2019-03-20T02:21:16.155Z,17.30
2019-03-20T02:23:44.768Z,17.13
2019-03-20T02:26:13.358Z,18.87
2019-03-20T02:28:41.938Z,20.23
2019-03-20T02:31:10.605Z,21.27
2019-03-20T02:33:39.168Z,20.93
2019-03-20T02:36:08.243Z,20.37
2019-03-20T02:38:36.866Z,20.47
2019-03-20T02:41:05.579Z,17.83
2019-03-20T02:43:34.169Z,20.70
2019-03-20T02:46:03.031Z,20.43
2019-03-20T02:48:33.141Z,20.60
2019-03-20T02:51:01.741Z,22.30
2019-03-20T02:53:30.749Z,23.17
2019-03-20T02:56:19.360Z,22.30
2019-03-20T02:58:48.135Z,22.80
2019-03-20T03:01:17.107Z,23.40
2019-03-20T03:03:45.821Z,24.37
2019-03-20T03:06:15.371Z,25.97
2019-03-20T03:08:44.063Z,25.00
2019-03-20T03:11:12.665Z,27.03
2019-03-20T03:13:41.303Z,25.37
2019-03-20T03:16:10.810Z,25.30
2019-03-20T03:18:39.787Z,24.13
2019-03-20T03:21:09.209Z,24.73
2019-03-20T03:23:37.879Z,23.57
2019-03-20T03:26:06.644Z,24.43
2019-03-20T03:28:35.285Z,25.80
2019-03-20T03:31:04.259Z,24.00
2019-03-20T03:33:33.013Z,25.27
2019-03-20T03:36:01.598Z,23.33
2019-03-20T03:38:30.173Z,24.13
2019-03-20T03:44:31.678Z,23.50
2019-03-20T03:47:02.468Z,23.33
2019-03-20T03:49:31.016Z,23.80
2019-03-20T03:51:59.617Z,23.50
2019-03-20T03:54:28.213Z,23.60
2019-03-20T03:56:57.312Z,23.97
2019-03-20T03:59:25.945Z,24.57
2019-03-20T04:01:54.637Z,24.87
2019-03-20T04:04:23.230Z,24.60
2019-03-20T04:06:51.865Z,24.77
2019-03-20T04:09:20.487Z,24.67
2019-03-20T04:11:49.072Z,26.00
2019-03-20T04:14:17.701Z,26.17
2019-03-20T04:16:46.342Z,27.10
2019-03-20T04:19:14.947Z,26.43
2019-03-20T04:21:43.513Z,27.00
2019-03-20T04:24:12.119Z,27.57
2019-03-20T04:26:40.680Z,27.03
2019-03-20T04:29:09.280Z,27.10
2019-03-20T04:31:37.900Z,25.47
2019-03-20T04:34:06.559Z,27.50
2019-03-20T04:36:46.835Z,26.23
2019-03-20T04:39:07.199Z,26.80
2019-03-20T04:41:35.784Z,26.70
2019-03-20T04:44:04.843Z,25.03
2019-03-20T04:46:33.412Z,25.17
2019-03-20T04:49:02.003Z,25.47
2019-03-20T04:51:30.633Z,25.10
2019-03-20T04:53:59.247Z,26.80
2019-03-20T04:56:27.793Z,23.83
2019-03-20T04:58:56.375Z,25.70
2019-03-20T05:01:24.939Z,24.20
2019-03-20T05:03:53.550Z,23.90
2019-03-20T05:06:22.087Z,24.97
2019-03-20T05:08:50.685Z,25.13
2019-03-20T05:11:19.325Z,23.43
2019-03-20T05:13:47.882Z,24.87
2019-03-20T05:16:16.488Z,24.87
2019-03-20T05:18:47.418Z,24.47
2019-03-20T05:21:15.994Z,24.03
2019-03-20T05:23:44.567Z,23.47
2019-03-20T05:26:14.136Z,24.43
2019-03-20T05:28:42.813Z,24.83
2019-03-20T05:31:13.103Z,25.40
2019-03-20T05:33:41.662Z,23.70
2019-03-20T05:36:10.481Z,24.20
2019-03-20T05:38:41.564Z,23.43
2019-03-20T05:41:10.170Z,24.33
2019-03-20T05:43:38.726Z,23.47
2019-03-20T05:46:08.939Z,29.00
2019-03-20T05:48:37.872Z,26.57
2019-03-20T05:51:06.468Z,24.47
2019-03-20T05:53:36.732Z,24.67
2019-03-20T05:56:24.851Z,25.23
2019-03-20T05:58:55.408Z,24.67
2019-03-20T06:01:23.961Z,24.13
2019-03-20T06:03:52.585Z,25.63
2019-03-20T06:06:21.143Z,24.83
2019-03-20T06:08:49.732Z,24.73
2019-03-20T06:11:18.322Z,24.60
2019-03-20T06:13:46.974Z,24.33
2019-03-20T06:16:15.647Z,24.20
2019-03-20T06:18:44.227Z,24.63
2019-03-20T06:21:12.931Z,25.37
2019-03-20T06:23:41.665Z,24.93
2019-03-20T06:26:10.264Z,23.23
2019-03-20T06:28:38.879Z,22.30
2019-03-20T06:31:07.419Z,21.83
2019-03-20T06:33:36.000Z,22.03
2019-03-20T06:36:04.781Z,21.97
2019-03-20T06:38:33.356Z,22.53
2019-03-20T06:41:01.989Z,19.83
2019-03-20T06:43:32.191Z,20.70
2019-03-20T06:46:00.751Z,21.40
2019-03-20T06:48:29.444Z,19.30
2019-03-20T06:50:57.999Z,21.73
2019-03-20T06:53:26.609Z,20.47
2019-03-20T06:55:55.319Z,18.57
2019-03-20T06:58:23.951Z,19.07
2019-03-20T07:00:55.615Z,17.33
2019-03-20T07:03:39.465Z,17.37
2019-03-20T07:06:11.411Z,15.03
2019-03-20T07:09:05.411Z,15.50
2019-03-20T07:11:38.952Z,15.40
2019-03-20T07:14:07.567Z,16.07
2019-03-20T07:16:36.197Z,11.97
2019-03-20T07:19:04.919Z,14.97
2019-03-20T07:21:36.313Z,14.90
2019-03-20T07:24:05.058Z,10.97
2019-03-20T07:26:33.634Z,13.37
2019-03-20T07:29:22.550Z,15.93
2019-03-20T07:31:51.104Z,14.37
2019-03-20T07:34:19.713Z,14.20
2019-03-20T07:36:48.437Z,16.13
2019-03-20T07:39:18.278Z,14.83
2019-03-20T07:41:46.867Z,15.73
2019-03-20T07:44:15.452Z,16.70
2019-03-20T07:46:44.010Z,15.50
2019-03-20T07:49:12.591Z,14.73
2019-03-20T07:51:41.159Z,14.63
2019-03-20T07:54:09.711Z,14.87
2019-03-20T07:56:38.328Z,13.83
2019-03-20T07:59:06.865Z,13.93
2019-03-20T08:01:35.463Z,14.37
2019-03-20T08:04:04.029Z,12.60
2019-03-20T08:06:32.716Z,12.03
2019-03-20T08:09:01.309Z,12.13
2019-03-20T08:11:29.857Z,11.13
2019-03-20T08:14:01.385Z,11.47
2019-03-20T08:16:30.535Z,11.10
2019-03-20T08:18:59.071Z,10.07
2019-03-20T08:21:29.951Z,9.03
2019-03-20T08:24:00.535Z,9.47
2019-03-20T08:26:29.143Z,7.93
2019-03-20T08:28:57.753Z,9.00
2019-03-20T08:31:26.273Z,8.50
2019-03-20T08:33:54.907Z,7.17
2019-03-20T08:36:26.285Z,5.63
2019-03-20T08:38:58.671Z,5.97
2019-03-20T08:41:37.412Z,6.77
2019-03-20T08:44:14.997Z,6.57
2019-03-20T08:46:46.230Z,5.13
2019-03-20T08:49:19.926Z,6.60
2019-03-20T08:51:51.804Z,6.33
2019-03-20T08:54:29.493Z,5.57
2019-03-20T08:56:58.406Z,7.47
2019-03-20T08:59:33.735Z,7.77
2019-03-20T09:02:05.218Z,9.00
2019-03-20T09:04:59.699Z,8.20
2019-03-20T09:07:32.974Z,7.60
2019-03-20T09:10:14.358Z,7.93
2019-03-20T09:12:48.996Z,8.07
2019-03-20T09:15:24.589Z,9.67
2019-03-20T09:17:59.782Z,9.27
2019-03-20T09:20:31.445Z,8.77
2019-03-20T09:23:05.233Z,8.00
2019-03-20T09:25:39.834Z,7.90
2019-03-20T09:28:15.539Z,7.33
2019-03-20T09:30:52.175Z,7.60
2019-03-20T09:33:27.953Z,8.40
2019-03-20T09:36:00.192Z,8.37
2019-03-20T09:38:42.673Z,7.10
2019-03-20T09:41:04.016Z,7.40
2019-03-20T09:43:39.574Z,7.30
2019-03-20T09:46:09.176Z,7.17
2019-03-20T09:48:41.548Z,8.07
2019-03-20T09:51:11.030Z,7.30
2019-03-20T09:53:44.214Z,7.47
2019-03-20T09:56:12.760Z,7.50
2019-03-20T09:58:42.535Z,7.33
2019-03-20T10:01:13.708Z,7.27
2019-03-20T10:03:51.122Z,7.50
2019-03-20T10:06:24.305Z,7.20
2019-03-20T10:09:02.054Z,7.87
2019-03-20T10:11:38.650Z,7.27
2019-03-20T10:14:16.216Z,8.20
2019-03-20T10:17:07.225Z,8.07
2019-03-20T10:19:44.750Z,8.10
2019-03-20T10:22:30.751Z,9.07
2019-03-20T10:25:03.951Z,9.17
2019-03-20T10:27:45.483Z,8.73
2019-03-20T10:30:33.240Z,9.27
2019-03-20T10:33:06.938Z,9.70
2019-03-20T10:35:49.553Z,9.27
2019-03-20T10:38:09.876Z,9.87
2019-03-20T10:40:42.272Z,9.60
2019-03-20T10:43:15.576Z,7.97
2019-03-20T10:45:49.097Z,8.33
2019-03-20T10:48:19.301Z,8.00
2019-03-20T10:50:50.360Z,7.47
2019-03-20T10:53:32.925Z,7.60
2019-03-20T10:56:06.571Z,7.47
2019-03-20T10:59:45.395Z,7.37
2019-03-20T11:02:18.135Z,6.23
2019-03-20T11:07:52.438Z,6.60
2019-03-20T11:13:29.015Z,6.50
2019-03-20T11:16:00.555Z,5.50
2019-03-20T11:18:33.175Z,5.80
2019-03-20T11:21:08.898Z,5.90
2019-03-20T11:23:40.027Z,6.43
2019-03-20T11:26:22.568Z,5.80
2019-03-20T11:28:56.578Z,5.30
2019-03-20T11:31:48.332Z,5.40
2019-03-20T11:34:30.235Z,5.50
2019-03-20T11:37:03.168Z,4.93
2019-03-20T11:39:33.966Z,4.80
2019-03-20T11:42:10.178Z,5.70
2019-03-20T11:44:42.184Z,5.67
2019-03-20T11:47:22.127Z,5.77
2019-03-20T11:49:54.845Z,5.53
2019-03-20T11:55:19.343Z,5.60
2019-03-20T12:00:41.487Z,6.10
2019-03-20T12:03:18.872Z,6.00
2019-03-20T12:05:58.430Z,6.70
2019-03-20T12:11:49.437Z,6.63
2019-03-20T12:16:55.150Z,7.43
2019-03-20T12:22:20.103Z,8.53
2019-03-20T12:24:56.788Z,8.57
2019-03-20T12:27:34.812Z,8.73
2019-03-20T12:30:09.175Z,8.30
2019-03-20T12:32:44.763Z,8.67
2019-03-20T12:35:26.607Z,8.67
2019-03-20T12:38:14.358Z,8.97
2019-03-20T12:40:39.932Z,8.57
2019-03-20T12:44:03.701Z,9.10
2019-03-20T12:46:41.332Z,9.60
2019-03-20T12:49:02.665Z,10.00
2019-03-20T12:51:32.302Z,9.20
2019-03-20T12:54:00.919Z,8.90
2019-03-20T12:56:29.456Z,8.53
2019-03-20T12:59:04.743Z,8.77
2019-03-20T13:01:37.760Z,9.00
2019-03-20T13:04:11.748Z,8.27
2019-03-20T13:06:53.855Z,8.43
2019-03-20T13:09:24.487Z,8.53
2019-03-20T13:12:54.502Z,8.93
2019-03-20T13:18:36.947Z,10.53
2019-03-20T13:21:15.523Z,9.97
2019-03-20T13:23:49.359Z,10.20
2019-03-20T13:26:24.847Z,9.53
2019-03-20T13:32:40.920Z,9.73
2019-03-20T13:38:20.679Z,8.63
2019-03-20T13:41:04.449Z,8.60
2019-03-20T13:44:00.407Z,9.03
2019-03-20T13:46:34.364Z,7.97
2019-03-20T13:49:28.828Z,7.57
2019-03-20T13:52:02.743Z,7.70
2019-03-20T13:54:45.176Z,7.77
2019-03-20T14:00:18.059Z,7.57
2019-03-20T14:03:09.573Z,7.03
2019-03-20T14:05:42.019Z,7.67
2019-03-20T14:08:16.753Z,7.90
2019-03-20T14:10:51.726Z,7.90
2019-03-20T14:16:18.595Z,9.07
2019-03-20T14:18:54.635Z,8.97
2019-03-20T14:21:29.061Z,9.40
2019-03-20T14:24:06.247Z,9.70
2019-03-20T14:26:45.271Z,8.13
2019-03-20T14:29:25.019Z,8.87
2019-03-20T14:32:02.333Z,8.90
2019-03-20T14:34:50.828Z,8.20
2019-03-20T14:37:27.704Z,7.97
2019-03-20T14:40:06.007Z,8.20
2019-03-20T14:42:37.603Z,9.10
2019-03-20T14:45:14.917Z,8.57
2019-03-20T14:47:46.333Z,8.37
2019-03-20T14:50:36.397Z,8.17
2019-03-20T14:53:25.331Z,8.67
2019-03-20T14:55:57.340Z,7.33
2019-03-20T14:58:37.152Z,8.07
2019-03-20T15:01:11.383Z,7.70
2019-03-20T15:06:34.598Z,8.83
2019-03-20T15:09:09.920Z,9.03
2019-03-20T15:11:42.703Z,9.30
2019-03-20T15:18:18.706Z,9.70
2019-03-20T15:21:01.842Z,9.90
2019-03-20T15:23:44.064Z,10.97
2019-03-20T15:26:24.167Z,10.50
2019-03-20T15:29:08.910Z,9.50
2019-03-20T15:31:45.377Z,9.93
2019-03-20T15:34:33.192Z,9.33
2019-03-20T15:37:20.040Z,9.27
2019-03-20T15:42:25.168Z,10.57
2019-03-20T15:44:54.383Z,9.83
2019-03-20T15:47:22.958Z,10.40
2019-03-20T15:49:51.547Z,10.73
2019-03-20T15:52:20.163Z,11.10
2019-03-20T15:54:48.724Z,10.63
2019-03-20T15:57:17.273Z,10.90
2019-03-20T15:59:45.782Z,11.03
2019-03-20T16:02:14.371Z,10.87
2019-03-20T16:04:42.925Z,11.63
2019-03-20T16:07:11.498Z,11.37
2019-03-20T16:09:40.085Z,11.97
2019-03-20T16:12:08.634Z,11.07
2019-03-20T16:15:34.736Z,11.90
2019-03-20T16:18:03.415Z,12.97
2019-03-20T16:20:31.959Z,12.23
2019-03-20T16:23:00.543Z,12.43
2019-03-20T16:25:32.583Z,12.87
2019-03-20T16:28:04.135Z,13.33
2019-03-20T16:30:33.744Z,13.50
2019-03-20T16:33:02.358Z,13.33
2019-03-20T16:35:30.930Z,13.60
2019-03-20T16:37:59.661Z,13.77
2019-03-20T16:40:30.445Z,13.93
2019-03-20T16:46:50.244Z,13.67
2019-03-20T16:49:18.842Z,14.40
2019-03-20T16:51:47.395Z,13.57
2019-03-20T16:54:15.954Z,13.80
2019-03-20T16:56:45.583Z,14.40
2019-03-20T16:59:32.544Z,13.40
2019-03-20T17:02:01.121Z,13.73
2019-03-20T17:04:29.683Z,13.93
2019-03-20T17:06:58.370Z,14.00
2019-03-20T17:09:26.926Z,13.87
2019-03-20T17:11:55.500Z,13.87
2019-03-20T17:14:24.092Z,14.83
2019-03-20T17:16:52.652Z,15.30
2019-03-20T17:19:21.212Z,15.40
2019-03-20T17:21:49.803Z,15.63
2019-03-20T17:24:18.373Z,15.13
2019-03-20T17:26:46.930Z,15.00
2019-03-20T17:29:15.528Z,15.63
2019-03-20T17:31:44.142Z,15.47
2019-03-20T17:34:12.700Z,15.30
2019-03-20T17:36:41.286Z,15.83
2019-03-20T17:39:09.927Z,16.10
2019-03-20T17:41:38.634Z,16.17
2019-03-20T17:44:45.958Z,14.97
2019-03-20T17:47:14.552Z,16.67
2019-03-20T17:49:43.146Z,15.87
2019-03-20T17:52:11.786Z,16.57
2019-03-20T17:54:40.374Z,15.73
2019-03-20T17:57:10.342Z,15.83
2019-03-20T17:59:39.367Z,16.83
2019-03-20T18:02:07.976Z,15.87
2019-03-20T18:04:36.535Z,15.03
2019-03-20T18:07:05.170Z,15.93
2019-03-20T18:09:33.784Z,16.20
2019-03-20T18:12:02.338Z,15.83
2019-03-20T18:14:30.910Z,16.47
2019-03-20T18:16:59.451Z,17.17
2019-03-20T18:19:28.044Z,17.70
2019-03-20T18:21:56.623Z,18.47
2019-03-20T18:24:25.459Z,18.10
2019-03-20T18:26:53.930Z,17.97
2019-03-20T18:29:22.491Z,17.60
2019-03-20T18:31:51.042Z,18.10
2019-03-20T18:34:19.617Z,16.80
2019-03-20T18:36:48.169Z,16.97
2019-03-20T18:39:16.782Z,17.13
2019-03-20T18:41:45.337Z,17.40
2019-03-20T18:44:15.043Z,16.90
2019-03-20T18:46:43.658Z,17.40
2019-03-20T18:49:12.210Z,18.07
2019-03-20T18:51:40.768Z,16.87
2019-03-20T18:54:09.346Z,17.50
2019-03-20T18:56:38.542Z,16.90
2019-03-20T18:59:07.022Z,16.73
2019-03-20T19:01:35.615Z,17.37
2019-03-20T19:04:04.328Z,16.33
2019-03-20T19:06:33.054Z,16.60
2019-03-20T19:09:01.639Z,17.03
2019-03-20T19:11:30.218Z,17.23
2019-03-20T19:13:58.843Z,16.80
2019-03-20T19:16:27.402Z,16.53
2019-03-20T19:18:55.981Z,16.27
2019-03-20T19:21:27.371Z,16.60
2019-03-20T19:24:01.225Z,15.50
2019-03-20T19:26:32.332Z,15.73
2019-03-20T19:29:01.250Z,16.37
2019-03-20T19:31:29.767Z,15.63
2019-03-20T19:33:58.397Z,16.40
2019-03-20T19:36:26.967Z,17.30
2019-03-20T19:38:55.631Z,18.93
2019-03-20T19:41:26.235Z,19.23
2019-03-20T19:43:54.819Z,19.27
2019-03-20T19:46:24.831Z,17.80
2019-03-20T19:48:53.406Z,18.27
2019-03-20T19:51:21.950Z,18.57
2019-03-20T19:53:50.554Z,19.17
2019-03-20T19:56:19.117Z,18.60
2019-03-20T19:58:47.663Z,19.83
2019-03-20T20:01:16.266Z,20.07
2019-03-20T20:03:44.964Z,19.17
2019-03-20T20:06:13.604Z,19.83
2019-03-20T20:08:43.718Z,19.43
2019-03-20T20:11:12.331Z,19.83
2019-03-20T20:13:40.884Z,21.57
2019-03-20T20:16:09.514Z,20.83
2019-03-20T20:18:38.203Z,21.10
2019-03-20T20:21:06.882Z,21.17
2019-03-20T20:23:35.531Z,21.80
2019-03-20T20:26:04.184Z,22.40
2019-03-20T20:28:50.950Z,21.80
2019-03-20T20:31:19.541Z,21.57
2019-03-20T20:33:48.097Z,22.30
2019-03-20T20:36:16.655Z,22.20
2019-03-20T20:38:45.205Z,25.30
2019-03-20T20:41:13.766Z,21.53
2019-03-20T20:43:57.523Z,20.17
2019-03-20T20:46:26.868Z,20.33
2019-03-20T20:48:55.464Z,20.37
2019-03-20T20:51:24.016Z,20.30
2019-03-20T20:53:52.628Z,18.33
2019-03-20T20:56:22.635Z,18.43
2019-03-20T20:58:51.304Z,17.87
2019-03-20T21:01:19.915Z,17.60
2019-03-20T21:03:48.626Z,18.40
2019-03-20T21:06:17.333Z,17.33
2019-03-20T21:08:45.965Z,16.80
2019-03-20T21:11:14.551Z,17.27
2019-03-20T21:13:43.133Z,16.17
2019-03-20T21:16:11.657Z,15.20
2019-03-20T21:18:46.405Z,14.40
2019-03-20T21:21:14.968Z,15.43
2019-03-20T21:24:20.030Z,15.90
2019-03-20T21:27:07.045Z,13.90
2019-03-20T21:30:14.278Z,14.27
2019-03-20T21:33:04.252Z,14.43
2019-03-20T21:35:55.756Z,14.77
2019-03-20T21:38:23.250Z,14.37
2019-03-20T21:41:13.359Z,15.00
2019-03-20T21:44:02.263Z,14.23
2019-03-20T21:46:52.321Z,14.27
2019-03-20T21:49:20.867Z,14.33
2019-03-20T21:51:49.417Z,14.80
2019-03-20T21:54:43.918Z,14.43
2019-03-20T21:57:34.127Z,14.53
2019-03-20T22:00:25.669Z,14.33
2019-03-20T22:02:54.224Z,14.00
2019-03-20T22:05:40.543Z,14.13
2019-03-20T22:08:09.095Z,13.77
2019-03-20T22:11:00.360Z,14.17
2019-03-20T22:13:40.763Z,14.30
2019-03-20T22:16:34.441Z,14.27
2019-03-20T22:19:22.270Z,13.90
2019-03-20T22:22:05.861Z,14.13
2019-03-20T22:25:10.487Z,14.47
2019-03-20T22:28:07.714Z,13.57
2019-03-20T22:30:36.267Z,15.30
2019-03-20T22:33:41.075Z,14.00
2019-03-20T22:36:09.639Z,14.60
2019-03-20T22:38:41.259Z,13.70
2019-03-20T22:41:21.898Z,13.87
2019-03-20T22:43:57.500Z,13.07
2019-03-20T22:46:34.447Z,13.53
2019-03-20T22:49:15.265Z,15.33
2019-03-20T22:51:55.391Z,13.13
2019-03-20T22:55:01.903Z,13.30
2019-03-20T22:57:42.415Z,12.83
2019-03-20T23:00:11.866Z,12.63
2019-03-20T23:03:00.968Z,12.80
2019-03-20T23:05:31.123Z,13.27
2019-03-20T23:07:59.698Z,12.43
2019-03-20T23:10:28.247Z,13.13
2019-03-20T23:12:56.812Z,12.73
2019-03-20T23:15:25.379Z,13.20
2019-03-20T23:17:53.937Z,12.70
2019-03-20T23:20:25.653Z,12.43
2019-03-20T23:22:54.289Z,11.70
2019-03-20T23:25:22.913Z,12.53
2019-03-20T23:27:51.483Z,11.97
2019-03-20T23:30:25.603Z,12.00
2019-03-20T23:32:54.191Z,12.83
2019-03-20T23:35:22.738Z,11.47
2019-03-20T23:37:51.287Z,12.40
2019-03-20T23:40:19.839Z,12.00
2019-03-20T23:42:51.855Z,12.00
2019-03-20T23:45:20.517Z,11.70
2019-03-20T23:47:58.291Z,12.00
2019-03-20T23:50:26.949Z,12.17
2019-03-20T23:52:55.499Z,10.97
2019-03-20T23:55:24.126Z,12.20
2019-03-20T23:57:52.719Z,11.07
